Aeroporto :
LOGIN :

Iscrizione | Disclaimer

   EN    FR    IT 

 










Sommario :    VFR   VFR Marginale   IFR   IFR Intensivo   IFR Molto Intensivo
Visibilità : 
Base nubi : 
>= 8 km
>= 3000ft
5 / 8 km
1000 / 3000 ft
1500m / 5 km
500 / 1000 ft
800 / 1500m
200 / 500 ft
< 800m
< 200 ft
Simboli :   Temporali  Nebbia  Neve Forte  Precipitazioni Forti  Vento > 20 kt
SIGMETs :   Varie  Temporali  Ghiacco  Turbolenza  Onda orograficha  Ceneri Vulcaniche






- Altitudine del aeroporto : 587 ft
- Codice IATA : XCR


LFOK - Chalons Vatry

ULTIMO METAR :
  • 200700Z AUTO 16004KT 130V190 9999 ///CB 19/16 Q1019 TEMPO 22025G50KT 0700 TSGR

METARs OBSOLETI :
  • 200630Z AUTO 22005KT CAVOK 19/16 Q1020 TEMPO 22025G50KT 0700 TSGR BKN060CB
  • 200600Z AUTO VRB02KT CAVOK 18/15 Q1019 TEMPO 22025G50KT 0700 TSGR BKN060CB
  • 200530Z AUTO 00000KT CAVOK 17/15 Q1019 TEMPO VRB15G25KT 4000 TSRA BKN060CB
  • 200500Z AUTO 04004KT CAVOK 16/14 Q1019 TEMPO VRB15G25KT 4000 TSRA BKN060CB

TAF TAF LFOK
Valido dal 20 a 06 ore il 21 a 06 ore UTC


200500Z 2006/2106 VRB03KT CAVOK
TEMPO 2007/2016 VRB20G35KT 4000 TSRA BKN060CB
PROB30
TEMPO 2007/2016 22025G50KT 0700 TSGR
BECMG 2013/2015 27015KT
BECMG 2017/2020 27005KT



MetMap, La meteo Aeronautica in un colpo d'occhio ! - Copyright ORBIFLY Dicembre 2007 - Disclaimer

ORBIFLY MET'MAP TEAM :

Programmazione e sviluppo : Alexandra Zaïnal
Concezione : Baudouin d'Aumeries
Supporto tecnico e logistico : Manuel Goepfert
Aiuto : Marc-Olivier Méhu
Aiuto per la traduzione : Arnaldo La Scala

Contatto : metmap@orbifly.com




FONTI E CREDITI :

   NOAA